Home PIREPS Pireps

Flight BEL3722

  • Submitted By: Carl Hermans
  • Departure Airport: Madrid / Barajas (LEMD)
  • Arrival Airport: Bruxelles National (EBBR)
  • Aircraft: A319-113 (OO-SSP)
  • Flight Time: 02.00
  • Date Submitted: 18/02/2015
  • Status: Accepted
Flight Details
Gross Revenue:
(111 load / € 0.00 per unit
€ 0.00
Fuel Cost:
(5815 fuel used @ 5.1 / unit)
€ 29,656.50

Additional Log Information:

View Log

Aircraft Used in flight is Brussels Airlines_WL iFly 737-800 (wide screen)
16:29 Brakes are On
16:29 Recovered from Stall
16:29 Recovered from Overspeed
16:29 You Landed @ 15 Knots and with 0 Vertical Speed
Arrival Weather
EBBR 181450Z 16007KT 7000 FEW006 04/02 Q1038 NOSIGrn
16:31 Brakes are Released
16:32 Landing Gear Up @ 174 Knots and 2030 Feet
16:33 Below Fl100 you need to turn on the landing lights
16:33 Below FL100 you need to turn on the landing lights
18:23 Landing Gear Down @ 153 Knots and 1920 Feet
18:30 Brussels Bel-Track1.0.0.8

Route Map

Corporate About Us Our Team Vacancies Information Fleet Route Network Rules and Regulations Operations Flight Schedules Event Center Tours Partners IVAO Vatsim Acars dev FSCB

fb Users Online Belgium Serge Van Laethem, Belgium Roger Wijns, United Kingdom David Chenery,
3 Pilot(s) and 235 Guest(s) Online
CMS by phpVMS - Design by Crazycreatives.com - Copyright © 2018 - Brussels Airlines Virtual